LPA407 UGTB-URSS
Flight info
| Callsign | LPA407 |
|---|---|
| Flight time | 1h 0m |
| Altitude | 32000 |
| Route | DF DCT GIMUR DCT TAGAR L850 BANUT BANUT1K |
| Aircraft | A333/H-SDE3GHIJ2J3J5M1RVWXY/LB2D1 |
Departure
| Time | 2026-04-23 13:49 |
|---|---|
| Airport | Tbilisi International Airport (UGTB) |
Arrival
| Time | 2026-04-23 14:49 |
|---|---|
| Airport | Sochi International Airport (URSS) |
| Time | Latitude | Longitude | Altitude | Speed | Heading |
|---|---|---|---|---|---|
| 2026-04-23 13:28 | 41.66931 | 44.95986 | 1579 ft | 0 kts | 223° |
| 2026-04-23 13:38 | 41.66931 | 44.95985 | 1579 ft | 0 kts | 223° |
| 2026-04-23 13:38 | 41.66939 | 44.95996 | 1579 ft | 2 kts | 229° |
| 2026-04-23 13:38 | 41.66949 | 44.96011 | 1580 ft | 2 kts | 225° |
| 2026-04-23 13:38 | 41.66959 | 44.96025 | 1581 ft | 2 kts | 223° |
| 2026-04-23 13:39 | 41.66972 | 44.96034 | 1582 ft | 2 kts | 183° |
| 2026-04-23 13:39 | 41.66986 | 44.96031 | 1583 ft | 2 kts | 150° |
| 2026-04-23 13:39 | 41.66997 | 44.96018 | 1583 ft | 2 kts | 129° |
| 2026-04-23 13:39 | 41.67007 | 44.96002 | 1584 ft | 2 kts | 134° |
| 2026-04-23 13:40 | 41.67010 | 44.95997 | 1584 ft | 0 kts | 135° |
| 2026-04-23 13:44 | 41.67010 | 44.95998 | 1584 ft | 0 kts | 135° |
| 2026-04-23 13:44 | 41.66976 | 44.96046 | 1583 ft | 19 kts | 131° |
| 2026-04-23 13:45 | 41.66861 | 44.96218 | 1580 ft | 25 kts | 134° |
| 2026-04-23 13:45 | 41.66743 | 44.96386 | 1579 ft | 24 kts | 133° |
| 2026-04-23 13:45 | 41.66664 | 44.96417 | 1575 ft | 8 kts | 192° |
| 2026-04-23 13:45 | 41.66529 | 44.96375 | 1565 ft | 24 kts | 193° |
| 2026-04-23 13:46 | 41.66357 | 44.96321 | 1555 ft | 26 kts | 194° |
| 2026-04-23 13:46 | 41.66175 | 44.96320 | 1544 ft | 27 kts | 156° |
| 2026-04-23 13:46 | 41.66027 | 44.96488 | 1536 ft | 28 kts | 135° |
| 2026-04-23 13:46 | 41.65898 | 44.96597 | 1523 ft | 19 kts | 187° |
| 2026-04-23 13:47 | 41.65854 | 44.96473 | 1523 ft | 15 kts | 297° |
| 2026-04-23 13:47 | 41.65907 | 44.96389 | 1528 ft | 5 kts | 316° |
| 2026-04-23 13:47 | 41.65911 | 44.96384 | 1528 ft | 0 kts | 317° |
| 2026-04-23 13:47 | 41.65924 | 44.96368 | 1529 ft | 17 kts | 317° |
| 2026-04-23 13:48 | 41.66174 | 44.96052 | 1539 ft | 79 kts | 316° |
| 2026-04-23 13:48 | 41.66706 | 44.95377 | 1554 ft | 130 kts | 316° |
| 2026-04-23 13:48 | 41.67466 | 44.94409 | 1657 ft | 164 kts | 316° |
| 2026-04-23 13:48 | 41.68311 | 44.93352 | 2197 ft | 166 kts | 317° |
| 2026-04-23 13:49 | 41.69151 | 44.92304 | 2819 ft | 167 kts | 317° |
| 2026-04-23 13:49 | 41.69989 | 44.91236 | 3354 ft | 170 kts | 317° |
| 2026-04-23 13:49 | 41.70882 | 44.90084 | 3664 ft | 185 kts | 317° |
| 2026-04-23 13:49 | 41.71833 | 44.88864 | 3958 ft | 200 kts | 317° |
| 2026-04-23 13:50 | 41.72890 | 44.87524 | 4263 ft | 216 kts | 317° |
| 2026-04-23 13:50 | 41.74027 | 44.86094 | 4562 ft | 233 kts | 317° |
| 2026-04-23 13:50 | 41.75254 | 44.84566 | 4881 ft | 251 kts | 317° |
| 2026-04-23 13:50 | 41.76557 | 44.82893 | 5248 ft | 266 kts | 313° |
| 2026-04-23 13:51 | 41.77784 | 44.81001 | 5773 ft | 274 kts | 308° |
| 2026-04-23 13:51 | 41.78977 | 44.78948 | 6270 ft | 285 kts | 306° |
| 2026-04-23 13:51 | 41.80167 | 44.76856 | 6968 ft | 288 kts | 305° |
| 2026-04-23 13:51 | 41.81387 | 44.74707 | 7736 ft | 290 kts | 304° |
| 2026-04-23 13:52 | 41.82590 | 44.72592 | 8499 ft | 291 kts | 303° |
| 2026-04-23 13:52 | 41.83815 | 44.70441 | 9250 ft | 293 kts | 303° |
| 2026-04-23 13:52 | 41.85055 | 44.68257 | 10056 ft | 294 kts | 302° |
| 2026-04-23 13:52 | 41.86291 | 44.66070 | 10670 ft | 301 kts | 302° |
| 2026-04-23 13:53 | 41.87587 | 44.63772 | 11025 ft | 318 kts | 302° |
| 2026-04-23 13:53 | 41.88957 | 44.61344 | 11343 ft | 336 kts | 302° |
| 2026-04-23 13:53 | 41.90389 | 44.58770 | 11813 ft | 347 kts | 299° |
| 2026-04-23 13:53 | 41.91584 | 44.55999 | 12577 ft | 345 kts | 291° |
| 2026-04-23 13:54 | 41.92482 | 44.53061 | 13444 ft | 340 kts | 285° |
| 2026-04-23 13:54 | 41.93206 | 44.50055 | 14282 ft | 340 kts | 283° |
| 2026-04-23 13:54 | 41.93901 | 44.47035 | 15034 ft | 342 kts | 283° |
| 2026-04-23 13:54 | 41.94596 | 44.44009 | 15743 ft | 346 kts | 284° |
| 2026-04-23 13:55 | 41.95304 | 44.40927 | 16450 ft | 348 kts | 284° |
| 2026-04-23 13:55 | 41.96022 | 44.37803 | 17161 ft | 351 kts | 284° |
| 2026-04-23 13:55 | 41.96743 | 44.34678 | 17884 ft | 353 kts | 283° |
| 2026-04-23 13:55 | 41.97458 | 44.31570 | 18567 ft | 355 kts | 283° |
| 2026-04-23 13:56 | 41.98190 | 44.28395 | 19289 ft | 357 kts | 283° |
| 2026-04-23 13:56 | 41.98926 | 44.25195 | 19980 ft | 360 kts | 283° |
| 2026-04-23 13:56 | 41.99661 | 44.21989 | 20643 ft | 362 kts | 283° |
| 2026-04-23 13:56 | 42.00391 | 44.18795 | 21242 ft | 364 kts | 283° |
| 2026-04-23 13:57 | 42.01140 | 44.15518 | 21882 ft | 367 kts | 283° |
| 2026-04-23 13:57 | 42.01902 | 44.12230 | 22491 ft | 370 kts | 284° |
| 2026-04-23 13:57 | 42.02712 | 44.08972 | 23080 ft | 372 kts | 284° |
| 2026-04-23 13:57 | 42.03547 | 44.05682 | 23636 ft | 375 kts | 285° |
| 2026-04-23 13:58 | 42.04388 | 44.02355 | 24195 ft | 377 kts | 285° |
| 2026-04-23 13:58 | 42.05230 | 43.99022 | 24805 ft | 378 kts | 284° |
| 2026-04-23 13:58 | 42.06061 | 43.95713 | 25368 ft | 379 kts | 285° |
| 2026-04-23 13:58 | 42.06901 | 43.92360 | 25878 ft | 381 kts | 285° |
| 2026-04-23 13:59 | 42.07752 | 43.88958 | 26379 ft | 382 kts | 285° |
| 2026-04-23 13:59 | 42.08590 | 43.85593 | 26864 ft | 384 kts | 285° |
| 2026-04-23 13:59 | 42.09438 | 43.82190 | 27360 ft | 385 kts | 285° |
| 2026-04-23 13:59 | 42.10289 | 43.78770 | 27863 ft | 386 kts | 285° |
| 2026-04-23 14:00 | 42.10852 | 43.76497 | 28197 ft | 386 kts | 285° |
| 2026-04-23 14:00 | 42.11986 | 43.71921 | 28788 ft | 388 kts | 285° |
| 2026-04-23 14:00 | 42.12838 | 43.68471 | 29171 ft | 390 kts | 285° |
| 2026-04-23 14:00 | 42.13693 | 43.65021 | 29521 ft | 393 kts | 284° |
| 2026-04-23 14:01 | 42.14558 | 43.61505 | 29716 ft | 399 kts | 285° |
| 2026-04-23 14:01 | 42.15434 | 43.57951 | 30032 ft | 402 kts | 284° |
| 2026-04-23 14:01 | 42.16305 | 43.54407 | 30490 ft | 401 kts | 284° |
| 2026-04-23 14:01 | 42.17186 | 43.50813 | 30962 ft | 401 kts | 284° |
| 2026-04-23 14:02 | 42.18049 | 43.47297 | 31363 ft | 400 kts | 285° |
| 2026-04-23 14:02 | 42.18916 | 43.43750 | 31728 ft | 400 kts | 285° |
| 2026-04-23 14:02 | 42.19791 | 43.40164 | 31802 ft | 400 kts | 284° |
| 2026-04-23 14:03 | 42.21511 | 43.33108 | 31814 ft | 400 kts | 284° |
| 2026-04-23 14:03 | 42.23234 | 43.26001 | 31811 ft | 398 kts | 284° |
| 2026-04-23 14:04 | 42.24955 | 43.18900 | 31812 ft | 399 kts | 284° |
| 2026-04-23 14:04 | 42.26654 | 43.11847 | 31818 ft | 397 kts | 283° |
| 2026-04-23 14:05 | 42.28372 | 43.04753 | 31810 ft | 398 kts | 284° |
| 2026-04-23 14:05 | 42.30111 | 42.97702 | 31817 ft | 398 kts | 284° |
| 2026-04-23 14:06 | 42.31860 | 42.90599 | 31817 ft | 399 kts | 284° |
| 2026-04-23 14:06 | 42.33602 | 42.83499 | 31823 ft | 398 kts | 284° |
| 2026-04-23 14:07 | 42.35339 | 42.76366 | 31829 ft | 407 kts | 284° |
| 2026-04-23 14:07 | 42.38010 | 42.65375 | 31823 ft | 413 kts | 284° |
| 2026-04-23 14:08 | 42.39793 | 42.58020 | 31826 ft | 412 kts | 284° |
| 2026-04-23 14:08 | 42.41561 | 42.50700 | 31828 ft | 413 kts | 284° |
| 2026-04-23 14:09 | 42.43341 | 42.43296 | 31763 ft | 410 kts | 284° |
| 2026-04-23 14:09 | 42.44216 | 42.39666 | 31293 ft | 408 kts | 283° |
| 2026-04-23 14:09 | 42.45089 | 42.36010 | 30315 ft | 413 kts | 283° |
| 2026-04-23 14:10 | 42.45964 | 42.32349 | 29592 ft | 411 kts | 283° |
| 2026-04-23 14:10 | 42.46840 | 42.28682 | 29307 ft | 401 kts | 282° |
| 2026-04-23 14:10 | 42.47679 | 42.25173 | 29046 ft | 392 kts | 283° |
| 2026-04-23 14:10 | 42.48506 | 42.21687 | 28776 ft | 390 kts | 283° |
| 2026-04-23 14:11 | 42.49335 | 42.18210 | 28502 ft | 390 kts | 282° |
| 2026-04-23 14:11 | 42.50155 | 42.14738 | 28227 ft | 390 kts | 283° |
| 2026-04-23 14:11 | 42.50982 | 42.11248 | 27951 ft | 388 kts | 283° |
| 2026-04-23 14:11 | 42.51810 | 42.07746 | 27682 ft | 387 kts | 283° |
| 2026-04-23 14:12 | 42.52621 | 42.04326 | 27411 ft | 387 kts | 282° |
| 2026-04-23 14:12 | 42.53436 | 42.00845 | 27136 ft | 386 kts | 282° |
| 2026-04-23 14:12 | 42.54252 | 41.97387 | 26862 ft | 387 kts | 282° |
| 2026-04-23 14:12 | 42.55064 | 41.93928 | 26588 ft | 384 kts | 282° |
| 2026-04-23 14:13 | 42.55872 | 41.90480 | 26308 ft | 383 kts | 282° |
| 2026-04-23 14:13 | 42.56671 | 41.87074 | 26043 ft | 383 kts | 282° |
| 2026-04-23 14:13 | 42.57477 | 41.83631 | 25764 ft | 381 kts | 282° |
| 2026-04-23 14:13 | 42.58274 | 41.80224 | 25495 ft | 380 kts | 282° |
| 2026-04-23 14:14 | 42.59065 | 41.76834 | 25223 ft | 379 kts | 282° |
| 2026-04-23 14:14 | 42.59858 | 41.73423 | 24950 ft | 377 kts | 282° |
| 2026-04-23 14:14 | 42.60638 | 41.70063 | 24681 ft | 377 kts | 282° |
| 2026-04-23 14:14 | 42.61421 | 41.66687 | 24419 ft | 378 kts | 281° |
| 2026-04-23 14:15 | 42.62211 | 41.63284 | 24156 ft | 377 kts | 282° |
| 2026-04-23 14:15 | 42.62999 | 41.59883 | 23865 ft | 377 kts | 281° |
| 2026-04-23 14:15 | 42.63778 | 41.56514 | 23611 ft | 377 kts | 281° |
| 2026-04-23 14:15 | 42.64555 | 41.53141 | 23352 ft | 376 kts | 282° |
| 2026-04-23 14:16 | 42.65329 | 41.49764 | 23097 ft | 372 kts | 282° |
| 2026-04-23 14:16 | 42.66095 | 41.46437 | 22835 ft | 372 kts | 282° |
| 2026-04-23 14:16 | 42.66869 | 41.43061 | 22583 ft | 370 kts | 281° |
| 2026-04-23 14:16 | 42.67629 | 41.39748 | 22294 ft | 369 kts | 281° |
| 2026-04-23 14:17 | 42.68382 | 41.36451 | 22060 ft | 368 kts | 281° |
| 2026-04-23 14:17 | 42.69151 | 41.33094 | 21806 ft | 368 kts | 281° |
| 2026-04-23 14:17 | 42.69899 | 41.29834 | 21550 ft | 365 kts | 280° |
| 2026-04-23 14:17 | 42.70651 | 41.26530 | 21301 ft | 364 kts | 281° |
| 2026-04-23 14:18 | 42.71401 | 41.23240 | 21014 ft | 362 kts | 281° |
| 2026-04-23 14:18 | 42.72141 | 41.19985 | 20791 ft | 362 kts | 281° |
| 2026-04-23 14:18 | 42.72880 | 41.16738 | 20558 ft | 361 kts | 280° |
| 2026-04-23 14:18 | 42.73616 | 41.13486 | 20288 ft | 360 kts | 281° |
| 2026-04-23 14:19 | 42.74355 | 41.10237 | 20028 ft | 359 kts | 280° |
| 2026-04-23 14:19 | 42.75079 | 41.07017 | 19797 ft | 358 kts | 281° |
| 2026-04-23 14:19 | 42.75810 | 41.03776 | 19516 ft | 356 kts | 281° |
| 2026-04-23 14:19 | 42.76526 | 41.00606 | 19267 ft | 355 kts | 280° |
| 2026-04-23 14:20 | 42.77249 | 40.97389 | 19069 ft | 355 kts | 280° |
| 2026-04-23 14:20 | 42.77967 | 40.94190 | 18851 ft | 354 kts | 281° |
| 2026-04-23 14:20 | 42.78690 | 40.90970 | 18607 ft | 354 kts | 280° |
| 2026-04-23 14:20 | 42.79398 | 40.87809 | 18275 ft | 353 kts | 281° |
| 2026-04-23 14:21 | 42.80115 | 40.84597 | 17918 ft | 350 kts | 281° |
| 2026-04-23 14:21 | 42.80817 | 40.81460 | 17581 ft | 348 kts | 280° |
| 2026-04-23 14:21 | 42.81514 | 40.78330 | 17204 ft | 345 kts | 280° |
| 2026-04-23 14:21 | 42.82209 | 40.75214 | 16853 ft | 342 kts | 280° |
| 2026-04-23 14:22 | 42.82894 | 40.72124 | 16490 ft | 340 kts | 280° |
| 2026-04-23 14:22 | 42.83574 | 40.69065 | 16109 ft | 337 kts | 281° |
| 2026-04-23 14:22 | 42.84250 | 40.66015 | 15714 ft | 336 kts | 281° |
| 2026-04-23 14:22 | 42.84917 | 40.63005 | 15334 ft | 333 kts | 282° |
| 2026-04-23 14:23 | 42.85573 | 40.60028 | 15004 ft | 330 kts | 281° |
| 2026-04-23 14:23 | 42.86231 | 40.57034 | 14953 ft | 334 kts | 281° |
| 2026-04-23 14:23 | 42.86901 | 40.53992 | 14878 ft | 333 kts | 281° |
| 2026-04-23 14:23 | 42.87571 | 40.50959 | 14258 ft | 339 kts | 281° |
| 2026-04-23 14:24 | 42.88249 | 40.47860 | 13491 ft | 346 kts | 282° |
| 2026-04-23 14:24 | 42.88926 | 40.44743 | 13039 ft | 345 kts | 282° |
| 2026-04-23 14:24 | 42.89612 | 40.41634 | 12600 ft | 343 kts | 282° |
| 2026-04-23 14:24 | 42.90282 | 40.38559 | 12170 ft | 341 kts | 283° |
| 2026-04-23 14:25 | 42.90963 | 40.35457 | 11946 ft | 333 kts | 282° |
| 2026-04-23 14:25 | 42.91613 | 40.32501 | 11953 ft | 324 kts | 283° |
| 2026-04-23 14:25 | 42.92248 | 40.29595 | 11945 ft | 320 kts | 282° |
| 2026-04-23 14:25 | 42.92884 | 40.26672 | 11936 ft | 317 kts | 282° |
| 2026-04-23 14:26 | 42.93508 | 40.23806 | 11939 ft | 312 kts | 282° |
| 2026-04-23 14:26 | 42.94101 | 40.21084 | 11874 ft | 289 kts | 283° |
| 2026-04-23 14:26 | 42.94652 | 40.18573 | 11912 ft | 266 kts | 282° |
| 2026-04-23 14:26 | 42.95171 | 40.16167 | 11954 ft | 263 kts | 282° |
| 2026-04-23 14:27 | 42.95683 | 40.13781 | 11922 ft | 263 kts | 282° |
| 2026-04-23 14:27 | 42.96198 | 40.11383 | 11956 ft | 262 kts | 282° |
| 2026-04-23 14:27 | 42.96701 | 40.09038 | 11950 ft | 260 kts | 282° |
| 2026-04-23 14:27 | 42.97213 | 40.06664 | 11946 ft | 259 kts | 282° |
| 2026-04-23 14:28 | 42.97713 | 40.04336 | 11937 ft | 256 kts | 282° |
| 2026-04-23 14:28 | 42.98214 | 40.02010 | 11845 ft | 251 kts | 282° |
| 2026-04-23 14:28 | 42.98705 | 39.99713 | 11533 ft | 252 kts | 282° |
| 2026-04-23 14:28 | 42.99203 | 39.97416 | 11241 ft | 253 kts | 284° |
| 2026-04-23 14:29 | 42.99731 | 39.95143 | 10944 ft | 255 kts | 284° |
| 2026-04-23 14:29 | 43.00274 | 39.92835 | 10638 ft | 256 kts | 285° |
| 2026-04-23 14:29 | 43.00822 | 39.90504 | 10334 ft | 257 kts | 286° |
| 2026-04-23 14:29 | 43.01368 | 39.88176 | 10023 ft | 258 kts | 285° |
| 2026-04-23 14:30 | 43.01913 | 39.85851 | 9607 ft | 264 kts | 286° |
| 2026-04-23 14:30 | 43.02477 | 39.83432 | 9076 ft | 273 kts | 286° |
| 2026-04-23 14:30 | 43.03060 | 39.80923 | 8509 ft | 281 kts | 287° |
| 2026-04-23 14:30 | 43.03884 | 39.78500 | 7960 ft | 291 kts | 308° |
| 2026-04-23 14:31 | 43.05545 | 39.76887 | 7412 ft | 302 kts | 340° |
| 2026-04-23 14:31 | 43.07663 | 39.76688 | 6849 ft | 311 kts | 11° |
| 2026-04-23 14:31 | 43.09683 | 39.77575 | 6249 ft | 304 kts | 18° |
| 2026-04-23 14:31 | 43.11672 | 39.78453 | 5705 ft | 293 kts | 14° |
| 2026-04-23 14:32 | 43.13624 | 39.79136 | 5072 ft | 288 kts | 11° |
| 2026-04-23 14:32 | 43.15593 | 39.79695 | 3927 ft | 299 kts | 8° |
| 2026-04-23 14:32 | 43.17634 | 39.80185 | 3011 ft | 299 kts | 8° |
| 2026-04-23 14:32 | 43.19656 | 39.80631 | 2546 ft | 285 kts | 7° |
| 2026-04-23 14:33 | 43.21557 | 39.81038 | 2400 ft | 264 kts | 7° |
| 2026-04-23 14:33 | 43.23299 | 39.81406 | 2262 ft | 245 kts | 7° |
| 2026-04-23 14:33 | 43.24940 | 39.81750 | 2147 ft | 229 kts | 7° |
| 2026-04-23 14:33 | 43.26452 | 39.82068 | 2129 ft | 209 kts | 8° |
| 2026-04-23 14:34 | 43.27752 | 39.82663 | 2121 ft | 190 kts | 25° |
| 2026-04-23 14:34 | 43.28855 | 39.83483 | 2140 ft | 171 kts | 27° |
| 2026-04-23 14:34 | 43.29855 | 39.84251 | 2117 ft | 156 kts | 28° |
| 2026-04-23 14:34 | 43.30765 | 39.84955 | 2108 ft | 148 kts | 26° |
| 2026-04-23 14:35 | 43.31684 | 39.85648 | 2076 ft | 150 kts | 26° |
| 2026-04-23 14:35 | 43.32583 | 39.86322 | 2033 ft | 149 kts | 26° |
| 2026-04-23 14:35 | 43.33498 | 39.87007 | 2042 ft | 149 kts | 26° |
| 2026-04-23 14:35 | 43.34410 | 39.87690 | 2038 ft | 149 kts | 26° |
| 2026-04-23 14:36 | 43.35332 | 39.88381 | 2026 ft | 150 kts | 27° |
| 2026-04-23 14:36 | 43.36224 | 39.89101 | 1887 ft | 149 kts | 28° |
| 2026-04-23 14:36 | 43.37119 | 39.89823 | 1668 ft | 149 kts | 27° |
| 2026-04-23 14:36 | 43.38024 | 39.90522 | 1430 ft | 146 kts | 26° |
| 2026-04-23 14:37 | 43.38916 | 39.91169 | 1180 ft | 146 kts | 25° |
| 2026-04-23 14:37 | 43.39808 | 39.91793 | 898 ft | 143 kts | 26° |
| 2026-04-23 14:37 | 43.40683 | 39.92417 | 731 ft | 142 kts | 27° |
| 2026-04-23 14:37 | 43.41561 | 39.93060 | 533 ft | 142 kts | 28° |
| 2026-04-23 14:38 | 43.42420 | 39.93712 | 347 ft | 141 kts | 28° |
| 2026-04-23 14:38 | 43.43273 | 39.94346 | 172 ft | 140 kts | 28° |
| 2026-04-23 14:38 | 43.44111 | 39.94962 | 104 ft | 128 kts | 29° |
| 2026-04-23 14:38 | 43.44893 | 39.95575 | 400 ft | 136 kts | 29° |
| 2026-04-23 14:39 | 43.45723 | 39.96258 | 1003 ft | 147 kts | 48° |
| 2026-04-23 14:39 | 43.46135 | 39.97585 | 1504 ft | 170 kts | 85° |
| 2026-04-23 14:39 | 43.45952 | 39.99345 | 1940 ft | 203 kts | 113° |
| 2026-04-23 14:39 | 43.45127 | 40.01042 | 2442 ft | 224 kts | 138° |
| 2026-04-23 14:40 | 43.43791 | 40.02248 | 2771 ft | 246 kts | 157° |
| 2026-04-23 14:40 | 43.42108 | 40.03020 | 2860 ft | 253 kts | 165° |
| 2026-04-23 14:40 | 43.40440 | 40.03693 | 2740 ft | 246 kts | 167° |
| 2026-04-23 14:40 | 43.38802 | 40.04256 | 2591 ft | 242 kts | 169° |
| 2026-04-23 14:41 | 43.37159 | 40.04624 | 2747 ft | 240 kts | 173° |
| 2026-04-23 14:41 | 43.35477 | 40.04926 | 3000 ft | 244 kts | 174° |
| 2026-04-23 14:41 | 43.33780 | 40.05219 | 2956 ft | 246 kts | 174° |
| 2026-04-23 14:41 | 43.32079 | 40.05507 | 2696 ft | 248 kts | 174° |
| 2026-04-23 14:42 | 43.30346 | 40.05807 | 2436 ft | 249 kts | 174° |
| 2026-04-23 14:42 | 43.28611 | 40.06104 | 2179 ft | 250 kts | 174° |
| 2026-04-23 14:42 | 43.26868 | 40.06399 | 2003 ft | 247 kts | 174° |
| 2026-04-23 14:42 | 43.25199 | 40.06492 | 1982 ft | 237 kts | 193° |
| 2026-04-23 14:43 | 43.23623 | 40.05634 | 2001 ft | 247 kts | 210° |
| 2026-04-23 14:43 | 43.22207 | 40.04398 | 1982 ft | 237 kts | 226° |
| 2026-04-23 14:43 | 43.21390 | 40.02515 | 1981 ft | 222 kts | 260° |
| 2026-04-23 14:43 | 43.21334 | 40.00445 | 2007 ft | 216 kts | 275° |
| 2026-04-23 14:44 | 43.21589 | 39.98421 | 1993 ft | 216 kts | 295° |
| 2026-04-23 14:44 | 43.22530 | 39.96836 | 2002 ft | 216 kts | 321° |
| 2026-04-23 14:44 | 43.23752 | 39.95623 | 2013 ft | 217 kts | 325° |
| 2026-04-23 14:44 | 43.24993 | 39.94466 | 2007 ft | 217 kts | 325° |
| 2026-04-23 14:45 | 43.26252 | 39.93309 | 2004 ft | 217 kts | 325° |
| 2026-04-23 14:45 | 43.27515 | 39.92162 | 2000 ft | 217 kts | 325° |
| 2026-04-23 14:45 | 43.28771 | 39.91026 | 2003 ft | 218 kts | 326° |
| 2026-04-23 14:45 | 43.30101 | 39.89819 | 2015 ft | 230 kts | 326° |
| 2026-04-23 14:46 | 43.31459 | 39.88680 | 1998 ft | 232 kts | 337° |
| 2026-04-23 14:46 | 43.33069 | 39.88338 | 2001 ft | 236 kts | 358° |
| 2026-04-23 14:46 | 43.34654 | 39.88276 | 1997 ft | 219 kts | 0° |
| 2026-04-23 14:46 | 43.36038 | 39.88850 | 1940 ft | 199 kts | 32° |
| 2026-04-23 14:47 | 43.37128 | 39.89877 | 1916 ft | 188 kts | 32° |
| 2026-04-23 14:47 | 43.38219 | 39.90842 | 1631 ft | 182 kts | 28° |
| 2026-04-23 14:47 | 43.39341 | 39.91619 | 1269 ft | 180 kts | 24° |
| 2026-04-23 14:47 | 43.40439 | 39.92331 | 1023 ft | 171 kts | 24° |
| 2026-04-23 14:48 | 43.41510 | 39.93038 | 670 ft | 170 kts | 27° |
| 2026-04-23 14:48 | 43.42542 | 39.93800 | 367 ft | 166 kts | 30° |
| 2026-04-23 14:48 | 43.43533 | 39.94533 | 142 ft | 158 kts | 29° |
| 2026-04-23 14:48 | 43.44436 | 39.95217 | 101 ft | 128 kts | 30° |
| 2026-04-23 14:49 | 43.44869 | 39.95555 | 101 ft | 27 kts | 26° |
| 2026-04-23 14:49 | 43.44990 | 39.95563 | 100 ft | 13 kts | 329° |
| 2026-04-23 14:49 | 43.45038 | 39.95526 | 100 ft | 6 kts | 330° |
| 2026-04-23 14:49 | 43.45061 | 39.95490 | 100 ft | 3 kts | 260° |
| 2026-04-23 14:50 | 43.45050 | 39.95457 | 100 ft | 6 kts | 246° |
| 2026-04-23 14:50 | 43.45021 | 39.95367 | 100 ft | 12 kts | 245° |
| 2026-04-23 14:50 | 43.44973 | 39.95220 | 100 ft | 20 kts | 246° |
| 2026-04-23 14:50 | 43.44911 | 39.95045 | 100 ft | 20 kts | 245° |
| 2026-04-23 14:51 | 43.44863 | 39.94904 | 101 ft | 14 kts | 244° |
| 2026-04-23 14:51 | 43.44819 | 39.94776 | 101 ft | 15 kts | 245° |
| 2026-04-23 14:51 | 43.44781 | 39.94663 | 101 ft | 12 kts | 245° |
| 2026-04-23 14:51 | 43.44751 | 39.94574 | 101 ft | 8 kts | 243° |
| 2026-04-23 14:52 | 43.44722 | 39.94494 | 101 ft | 10 kts | 245° |
| 2026-04-23 14:52 | 43.44743 | 39.94426 | 101 ft | 6 kts | 339° |
| 2026-04-23 14:52 | 43.44778 | 39.94403 | 101 ft | 3 kts | 335° |
| 2026-04-23 14:52 | 43.44793 | 39.94392 | 101 ft | 5 kts | 334° |
| 2026-04-23 14:53 | 43.44808 | 39.94382 | 101 ft | 0 kts | 334° |